createdAt,value
2019-03-03T00:00:13.523Z,2.27
2019-03-03T00:02:47.423Z,2.00
2019-03-03T00:05:19.738Z,2.50
2019-03-03T00:07:52.794Z,2.03
2019-03-03T00:10:25.621Z,3.17
2019-03-03T00:13:00.163Z,2.17
2019-03-03T00:15:33.213Z,1.67
2019-03-03T00:18:08.173Z,2.70
2019-03-03T00:20:43.284Z,2.07
2019-03-03T00:23:15.608Z,2.47
2019-03-03T00:25:47.748Z,1.50
2019-03-03T00:28:20.036Z,1.77
2019-03-03T00:30:51.958Z,2.27
2019-03-03T00:33:23.948Z,1.60
2019-03-03T00:35:56.530Z,2.23
2019-03-03T00:38:46.236Z,1.87
2019-03-03T00:41:33.319Z,2.27
2019-03-03T00:44:24.894Z,2.37
2019-03-03T00:47:21.187Z,2.17
2019-03-03T00:50:26.961Z,2.63
2019-03-03T00:53:15.583Z,2.70
2019-03-03T00:56:04.666Z,2.37
2019-03-03T00:59:03.042Z,2.67
2019-03-03T01:02:26.546Z,2.20
2019-03-03T01:05:23.711Z,2.37
2019-03-03T01:08:16.622Z,1.83
2019-03-03T01:11:04.434Z,2.10
2019-03-03T01:14:00.255Z,2.20
2019-03-03T01:16:53.494Z,1.90
2019-03-03T01:19:49.914Z,3.77
2019-03-03T01:22:34.015Z,2.50
2019-03-03T01:25:04.798Z,2.37
2019-03-03T01:27:36.080Z,3.17
2019-03-03T01:30:10.144Z,3.03
2019-03-03T01:32:42.376Z,2.00
2019-03-03T01:35:14.418Z,3.93
2019-03-03T01:37:45.684Z,2.83
2019-03-03T01:40:20.018Z,3.20
2019-03-03T01:42:51.566Z,2.67
2019-03-03T01:45:25.259Z,3.30
2019-03-03T01:47:56.817Z,3.97
2019-03-03T01:50:27.518Z,2.40
2019-03-03T01:52:58.688Z,2.13
2019-03-03T01:55:29.627Z,2.73
2019-03-03T01:58:01.082Z,2.27
2019-03-03T02:00:32.340Z,2.67
2019-03-03T02:03:03.790Z,2.97
2019-03-03T02:05:35.624Z,2.63
2019-03-03T02:08:07.102Z,3.13
2019-03-03T02:10:38.203Z,2.90
2019-03-03T02:13:08.874Z,2.77
2019-03-03T02:15:40.745Z,3.43
2019-03-03T02:18:12.725Z,3.67
2019-03-03T02:20:43.925Z,2.77
2019-03-03T02:23:16.341Z,3.97
2019-03-03T02:25:50.454Z,3.10
2019-03-03T02:28:23.563Z,3.97
2019-03-03T02:30:54.548Z,3.23
2019-03-03T02:33:26.112Z,3.73
2019-03-03T02:35:57.561Z,3.90
2019-03-03T02:38:28.939Z,3.43
2019-03-03T02:40:59.591Z,3.50
2019-03-03T02:43:37.161Z,2.33
2019-03-03T02:46:11.086Z,5.77
2019-03-03T02:48:42.929Z,4.37
2019-03-03T02:51:18.260Z,3.67
2019-03-03T02:53:53.000Z,3.13
2019-03-03T02:56:28.250Z,3.40
2019-03-03T02:59:00.921Z,4.67
2019-03-03T03:01:47.564Z,3.83
2019-03-03T03:04:19.176Z,3.13
2019-03-03T03:06:55.766Z,2.60
2019-03-03T03:13:00.166Z,5.17
2019-03-03T03:15:48.192Z,3.17
2019-03-03T03:18:38.750Z,3.20
2019-03-03T03:21:30.966Z,3.30
2019-03-03T03:24:17.407Z,2.70
2019-03-03T03:27:16.052Z,2.43
2019-03-03T03:30:04.330Z,2.27
2019-03-03T03:32:47.093Z,3.83
2019-03-03T03:35:32.626Z,2.67
2019-03-03T03:38:23.113Z,4.33
2019-03-03T03:41:18.608Z,3.30
2019-03-03T03:44:11.656Z,2.00
2019-03-03T03:46:47.926Z,4.27
2019-03-03T03:49:39.495Z,1.60
2019-03-03T03:52:30.560Z,3.50
2019-03-03T03:55:23.598Z,2.20
2019-03-03T03:58:05.080Z,2.10
2019-03-03T04:00:56.116Z,2.47
2019-03-03T04:03:51.213Z,4.00
2019-03-03T04:06:37.130Z,3.00
2019-03-03T04:09:31.938Z,3.00
2019-03-03T04:12:25.633Z,2.63
2019-03-03T04:15:23.838Z,3.87
2019-03-03T04:18:13.015Z,2.47
2019-03-03T04:21:08.578Z,2.97
2019-03-03T04:24:10.758Z,3.60
2019-03-03T04:26:54.185Z,2.60
2019-03-03T04:29:56.645Z,3.87
2019-03-03T04:32:49.695Z,2.53
2019-03-03T04:35:46.055Z,2.03
2019-03-03T04:38:29.258Z,3.90
2019-03-03T04:41:23.098Z,5.43
2019-03-03T04:44:06.194Z,8.17
2019-03-03T04:46:45.470Z,3.07
2019-03-03T04:49:35.214Z,3.10
2019-03-03T04:52:21.356Z,3.90
2019-03-03T04:55:19.578Z,5.37
2019-03-03T04:58:01.791Z,3.07
2019-03-03T05:01:00.881Z,2.53
2019-03-03T05:03:56.958Z,2.80
2019-03-03T05:06:53.293Z,2.47
2019-03-03T05:09:40.161Z,4.20
2019-03-03T05:12:37.593Z,3.00
2019-03-03T05:15:36.481Z,3.40
2019-03-03T05:18:15.516Z,5.03
2019-03-03T05:20:55.600Z,5.77
2019-03-03T05:23:26.397Z,4.83
2019-03-03T05:26:00.480Z,3.47
2019-03-03T05:28:31.390Z,4.27
2019-03-03T05:31:03.951Z,4.37
2019-03-03T05:33:35.985Z,4.67
2019-03-03T05:36:07.164Z,3.53
2019-03-03T05:38:39.107Z,4.33
2019-03-03T05:41:11.023Z,4.90
2019-03-03T05:43:41.986Z,6.47
2019-03-03T05:46:12.465Z,8.03
2019-03-03T05:48:43.006Z,8.20
2019-03-03T05:51:14.388Z,7.03
2019-03-03T05:53:45.204Z,8.73
2019-03-03T05:56:18.949Z,7.90
2019-03-03T05:58:51.259Z,8.20
2019-03-03T06:01:22.933Z,8.73
2019-03-03T06:03:54.519Z,9.43
2019-03-03T06:06:27.189Z,10.10
2019-03-03T06:09:02.223Z,9.40
2019-03-03T06:11:34.482Z,10.83
2019-03-03T06:14:05.862Z,9.70
2019-03-03T06:16:39.688Z,12.27
2019-03-03T06:19:10.442Z,12.47
2019-03-03T06:21:42.233Z,11.23
2019-03-03T06:27:04.555Z,10.77
2019-03-03T06:29:36.766Z,10.77
2019-03-03T06:32:14.445Z,10.70
2019-03-03T06:34:47.096Z,9.57
2019-03-03T06:37:18.926Z,10.67
2019-03-03T06:39:51.907Z,11.13
2019-03-03T06:42:24.468Z,11.67
2019-03-03T06:44:55.588Z,12.30
2019-03-03T06:47:26.879Z,11.33
2019-03-03T06:50:01.018Z,10.17
2019-03-03T06:52:33.863Z,9.83
2019-03-03T06:55:05.075Z,9.70
2019-03-03T06:57:38.997Z,9.67
2019-03-03T07:00:14.057Z,10.53
2019-03-03T07:02:48.079Z,10.87
2019-03-03T07:05:18.991Z,11.03
2019-03-03T07:07:50.485Z,10.83
2019-03-03T07:10:21.930Z,11.33
2019-03-03T07:12:56.227Z,9.60
2019-03-03T07:15:28.332Z,9.17
2019-03-03T07:18:01.006Z,10.60
2019-03-03T07:20:33.709Z,8.40
2019-03-03T07:23:04.974Z,8.47
2019-03-03T07:25:35.194Z,9.20
2019-03-03T07:28:13.572Z,9.33
2019-03-03T07:30:46.520Z,8.07
2019-03-03T07:33:30.812Z,9.30
2019-03-03T07:36:02.756Z,6.13
2019-03-03T07:38:35.573Z,6.37
2019-03-03T07:41:06.405Z,7.03
2019-03-03T07:43:39.475Z,7.13
2019-03-03T07:46:11.673Z,10.07
2019-03-03T07:48:58.832Z,7.87
2019-03-03T07:54:27.388Z,8.33
2019-03-03T07:56:58.757Z,8.27
2019-03-03T07:59:29.950Z,7.07
2019-03-03T08:02:06.927Z,6.53
2019-03-03T08:04:42.159Z,6.93
2019-03-03T08:07:15.142Z,5.47
2019-03-03T08:09:48.333Z,6.10
2019-03-03T08:12:20.393Z,6.47
2019-03-03T08:14:51.663Z,7.03
2019-03-03T08:17:24.273Z,6.10
2019-03-03T08:19:55.291Z,4.70
2019-03-03T08:22:26.096Z,5.53
2019-03-03T08:24:56.952Z,6.00
2019-03-03T08:27:29.473Z,4.77
2019-03-03T08:30:01.363Z,5.27
2019-03-03T08:32:33.287Z,5.03
2019-03-03T08:35:30.594Z,5.43
2019-03-03T08:37:57.824Z,4.17
2019-03-03T08:40:29.873Z,4.73
2019-03-03T08:43:21.356Z,5.80
2019-03-03T08:46:27.526Z,4.97
2019-03-03T08:49:25.672Z,3.93
2019-03-03T08:52:28.888Z,3.97
2019-03-03T08:55:27.690Z,4.47
2019-03-03T08:58:24.627Z,4.07
2019-03-03T09:01:25.378Z,4.20
2019-03-03T09:04:25.289Z,3.93
2019-03-03T09:07:11.563Z,3.90
2019-03-03T09:09:58.470Z,4.83
2019-03-03T09:13:04.890Z,5.83
2019-03-03T09:16:04.188Z,4.77
2019-03-03T09:18:53.563Z,6.83
2019-03-03T09:21:54.948Z,2.30
2019-03-03T09:27:57.150Z,4.17
2019-03-03T09:30:45.203Z,3.27
2019-03-03T09:34:08.854Z,3.23
2019-03-03T09:36:31.035Z,2.43
2019-03-03T09:39:34.516Z,2.23
2019-03-03T09:42:17.189Z,5.13
2019-03-03T09:45:20.997Z,3.43
2019-03-03T09:48:17.894Z,6.00
2019-03-03T09:51:27.274Z,4.33
2019-03-03T09:54:09.835Z,4.17
2019-03-03T09:57:09.841Z,2.60
2019-03-03T10:00:09.365Z,3.57
2019-03-03T10:03:11.494Z,3.37
2019-03-03T10:05:57.341Z,3.97
2019-03-03T10:08:39.947Z,3.03
2019-03-03T10:11:31.870Z,2.77
2019-03-03T10:14:23.090Z,4.50
2019-03-03T10:17:09.601Z,2.60
2019-03-03T10:19:58.458Z,2.93
2019-03-03T10:22:49.971Z,2.50
2019-03-03T10:25:50.304Z,4.33
2019-03-03T10:28:44.531Z,3.90
2019-03-03T10:31:28.565Z,3.30
2019-03-03T10:34:29.214Z,3.73
2019-03-03T10:37:22.723Z,3.43
2019-03-03T10:40:25.329Z,2.00
2019-03-03T10:43:19.947Z,2.17
2019-03-03T10:46:09.415Z,3.37
2019-03-03T10:49:00.752Z,2.47
2019-03-03T10:51:58.276Z,2.57
2019-03-03T10:55:04.443Z,3.33
2019-03-03T10:57:47.569Z,2.20
2019-03-03T11:00:44.567Z,2.53
2019-03-03T11:03:28.398Z,2.60
2019-03-03T11:06:23.233Z,3.03
2019-03-03T11:09:34.659Z,2.13
2019-03-03T11:12:25.089Z,2.93
2019-03-03T11:15:07.380Z,2.03
2019-03-03T11:17:59.279Z,1.90
2019-03-03T11:20:48.195Z,2.67
2019-03-03T11:23:49.695Z,3.30
2019-03-03T11:26:42.031Z,2.10
2019-03-03T11:29:32.049Z,2.63
2019-03-03T11:32:21.075Z,2.20
2019-03-03T11:35:14.677Z,2.90
2019-03-03T11:38:00.613Z,2.87
2019-03-03T11:40:59.258Z,3.63
2019-03-03T11:43:51.063Z,3.23
2019-03-03T11:46:38.572Z,2.73
2019-03-03T11:49:31.344Z,2.90
2019-03-03T11:52:21.112Z,1.90
2019-03-03T11:55:10.997Z,1.83
2019-03-03T11:58:16.826Z,3.27
2019-03-03T12:00:59.274Z,2.77
2019-03-03T12:03:55.702Z,2.03
2019-03-03T12:06:55.399Z,3.77
2019-03-03T12:09:58.221Z,3.67
2019-03-03T12:12:48.026Z,2.63
2019-03-03T12:15:26.960Z,3.03
2019-03-03T12:18:07.793Z,4.03
2019-03-03T12:21:03.953Z,3.17
2019-03-03T12:23:56.400Z,2.93
2019-03-03T12:26:55.249Z,3.40
2019-03-03T12:29:49.052Z,2.37
2019-03-03T12:32:49.595Z,3.27
2019-03-03T12:35:47.365Z,3.57
2019-03-03T12:41:34.186Z,4.40
2019-03-03T12:44:18.812Z,2.50
2019-03-03T12:47:11.502Z,2.60
2019-03-03T12:50:10.385Z,3.33
2019-03-03T12:53:12.377Z,3.33
2019-03-03T12:55:56.423Z,2.97
2019-03-03T12:58:46.188Z,3.30
2019-03-03T13:01:34.651Z,3.97
2019-03-03T13:07:11.147Z,2.20
2019-03-03T13:10:01.032Z,2.40
2019-03-03T13:12:40.267Z,3.43
2019-03-03T13:15:31.781Z,2.77
2019-03-03T13:18:33.409Z,5.57
2019-03-03T13:21:21.850Z,4.17
2019-03-03T13:23:58.538Z,3.13
2019-03-03T13:27:07.303Z,2.80
2019-03-03T13:30:11.824Z,2.23
2019-03-03T13:32:52.494Z,2.70
2019-03-03T13:35:39.505Z,2.43
2019-03-03T13:38:30.366Z,2.10
2019-03-03T13:41:25.825Z,2.33
2019-03-03T13:43:56.950Z,1.83
2019-03-03T13:46:27.887Z,2.47
2019-03-03T13:48:58.592Z,2.57
2019-03-03T13:51:33.443Z,2.23
2019-03-03T13:54:06.629Z,2.50
2019-03-03T13:56:37.379Z,2.17
2019-03-03T13:59:08.637Z,1.67
2019-03-03T14:01:39.383Z,2.63
2019-03-03T14:04:10.597Z,1.63
2019-03-03T14:06:41.283Z,3.30
2019-03-03T14:09:12.539Z,3.13
2019-03-03T14:11:43.205Z,2.30
2019-03-03T14:14:14.261Z,2.70
2019-03-03T14:16:45.230Z,3.03
2019-03-03T14:19:16.022Z,2.67
2019-03-03T14:21:46.555Z,2.60
2019-03-03T14:24:17.744Z,3.60
2019-03-03T14:26:50.625Z,2.20
2019-03-03T14:29:21.779Z,2.93
2019-03-03T14:31:52.321Z,1.67
2019-03-03T14:34:25.180Z,2.20
2019-03-03T14:36:55.991Z,4.17
2019-03-03T14:39:27.565Z,2.60
2019-03-03T14:41:59.657Z,3.33
2019-03-03T14:44:31.815Z,2.45
2019-03-03T14:47:03.255Z,3.90
2019-03-03T14:49:37.710Z,2.47
2019-03-03T14:52:09.044Z,1.87
2019-03-03T14:54:42.096Z,1.97
2019-03-03T14:57:13.086Z,2.77
2019-03-03T14:59:44.238Z,2.73
2019-03-03T15:02:15.019Z,1.40
2019-03-03T15:04:47.230Z,2.00
2019-03-03T15:07:17.926Z,2.52
2019-03-03T15:09:48.867Z,3.97
2019-03-03T15:12:20.059Z,3.03
2019-03-03T15:14:50.486Z,3.30
2019-03-03T15:17:21.769Z,2.70
2019-03-03T15:19:54.878Z,3.40
2019-03-03T15:22:26.480Z,2.22
2019-03-03T15:24:57.820Z,2.80
2019-03-03T15:27:34.020Z,2.55
2019-03-03T15:30:05.215Z,2.47
2019-03-03T15:32:40.324Z,3.12
2019-03-03T15:35:11.275Z,2.62
2019-03-03T15:37:45.558Z,1.67
2019-03-03T15:40:17.927Z,2.42
2019-03-03T15:42:49.407Z,3.12
2019-03-03T15:45:21.187Z,2.58
2019-03-03T15:47:52.993Z,4.53
2019-03-03T15:50:24.332Z,2.22
2019-03-03T15:52:55.696Z,6.13
2019-03-03T15:55:26.297Z,2.60
2019-03-03T15:58:00.718Z,2.90
2019-03-03T16:00:31.572Z,2.80
2019-03-03T16:03:02.190Z,2.57
2019-03-03T16:05:32.732Z,3.03
2019-03-03T16:08:04.609Z,2.13
2019-03-03T16:10:35.105Z,2.30
2019-03-03T16:13:05.736Z,9.37
2019-03-03T16:15:36.380Z,4.93
2019-03-03T16:18:10.082Z,1.40
2019-03-03T16:20:41.131Z,2.73
2019-03-03T16:23:12.443Z,2.20
2019-03-03T16:25:47.681Z,1.83
2019-03-03T16:28:19.906Z,3.93
2019-03-03T16:30:51.959Z,3.03
2019-03-03T16:33:22.514Z,1.60
2019-03-03T16:35:53.329Z,2.00
2019-03-03T16:38:24.571Z,3.77
2019-03-03T16:40:55.570Z,1.43
2019-03-03T16:43:26.605Z,2.40
2019-03-03T16:45:57.518Z,1.87
2019-03-03T16:48:27.942Z,2.23
2019-03-03T16:50:58.577Z,1.77
2019-03-03T16:53:29.809Z,2.20
2019-03-03T16:56:02.091Z,2.30
2019-03-03T16:58:33.209Z,2.93
2019-03-03T17:01:04.245Z,3.40
2019-03-03T17:03:36.236Z,4.03
2019-03-03T17:06:09.233Z,6.27
2019-03-03T17:08:40.430Z,3.77
2019-03-03T17:11:13.598Z,1.97
2019-03-03T17:13:45.801Z,3.10
2019-03-03T17:16:17.093Z,2.43
2019-03-03T17:18:48.852Z,3.33
2019-03-03T17:23:53.740Z,3.73
2019-03-03T17:26:24.220Z,6.20
2019-03-03T17:28:56.191Z,4.00
2019-03-03T17:31:30.048Z,2.83
2019-03-03T17:34:01.152Z,6.43
2019-03-03T17:36:31.931Z,3.40
2019-03-03T17:39:05.314Z,3.87
2019-03-03T17:41:36.204Z,3.80
2019-03-03T17:44:10.048Z,3.30
2019-03-03T17:46:41.405Z,3.67
2019-03-03T17:49:14.044Z,7.87
2019-03-03T17:51:48.336Z,6.37
2019-03-03T17:54:21.065Z,5.13
2019-03-03T17:56:52.374Z,4.33
2019-03-03T17:59:23.337Z,4.10
2019-03-03T18:01:55.275Z,5.87
2019-03-03T18:04:26.101Z,5.47
2019-03-03T18:06:57.316Z,5.90
2019-03-03T18:09:29.124Z,4.23
2019-03-03T18:12:01.591Z,3.77
2019-03-03T18:14:32.264Z,4.30
2019-03-03T18:17:05.429Z,4.53
2019-03-03T18:19:38.293Z,5.40
2019-03-03T18:22:11.992Z,4.77
2019-03-03T18:24:42.957Z,4.60
2019-03-03T18:27:13.389Z,4.27
2019-03-03T18:29:44.229Z,3.87
2019-03-03T18:32:14.832Z,4.70
2019-03-03T18:34:45.922Z,4.10
2019-03-03T18:37:16.713Z,5.40
2019-03-03T18:39:47.654Z,4.63
2019-03-03T18:42:18.062Z,5.87
2019-03-03T18:44:49.535Z,5.67
2019-03-03T18:47:20.675Z,4.83
2019-03-03T18:49:51.988Z,5.33
2019-03-03T18:52:24.720Z,5.13
2019-03-03T18:54:56.182Z,4.17
2019-03-03T18:57:26.691Z,3.87
2019-03-03T19:00:00.453Z,4.70
2019-03-03T19:02:31.368Z,5.50
2019-03-03T19:05:02.990Z,4.97
2019-03-03T19:07:34.175Z,5.57
2019-03-03T19:10:05.206Z,7.97
2019-03-03T19:12:37.292Z,5.70
2019-03-03T19:15:11.410Z,4.47
2019-03-03T19:17:42.015Z,5.83
2019-03-03T19:20:13.461Z,5.60
2019-03-03T19:22:44.129Z,5.83
2019-03-03T19:25:14.859Z,3.87
2019-03-03T19:27:46.323Z,4.50
2019-03-03T19:30:21.411Z,5.50
2019-03-03T19:33:04.332Z,4.53
2019-03-03T19:35:35.261Z,3.87
2019-03-03T19:38:07.231Z,4.37
2019-03-03T19:40:40.905Z,4.17
2019-03-03T19:43:11.572Z,5.43
2019-03-03T19:45:43.064Z,4.07
2019-03-03T19:48:14.254Z,4.00
2019-03-03T19:50:44.331Z,2.97
2019-03-03T19:53:14.916Z,3.10
2019-03-03T19:55:46.487Z,11.03
2019-03-03T19:58:20.675Z,2.80
2019-03-03T20:00:51.346Z,2.20
2019-03-03T20:03:22.299Z,1.93
2019-03-03T20:05:54.435Z,2.60
2019-03-03T20:08:24.826Z,2.20
2019-03-03T20:10:55.291Z,5.83
2019-03-03T20:13:26.002Z,2.60
2019-03-03T20:15:56.730Z,2.87
2019-03-03T20:18:27.422Z,3.43
2019-03-03T20:20:59.049Z,1.90
2019-03-03T20:23:30.836Z,3.50
2019-03-03T20:26:03.700Z,1.83
2019-03-03T20:28:34.790Z,4.60
2019-03-03T20:31:05.574Z,1.83
2019-03-03T20:33:37.750Z,2.17
2019-03-03T20:36:10.551Z,2.50
2019-03-03T20:38:40.934Z,2.90
2019-03-03T20:41:13.824Z,1.90
2019-03-03T20:43:44.470Z,1.50
2019-03-03T20:46:16.709Z,2.17
2019-03-03T20:48:50.128Z,2.23
2019-03-03T20:51:24.404Z,2.13
2019-03-03T20:53:56.454Z,4.43
2019-03-03T20:56:27.404Z,3.50
2019-03-03T20:58:57.971Z,3.03
2019-03-03T21:01:28.837Z,4.60
2019-03-03T21:03:59.739Z,5.83
2019-03-03T21:06:31.367Z,4.80
2019-03-03T21:09:01.795Z,3.70
2019-03-03T21:11:33.727Z,4.57
2019-03-03T21:14:04.693Z,3.67
2019-03-03T21:16:35.149Z,4.30
2019-03-03T21:19:07.404Z,5.50
2019-03-03T21:21:38.669Z,3.97
2019-03-03T21:24:09.240Z,5.60
2019-03-03T21:26:39.825Z,4.87
2019-03-03T21:29:10.288Z,4.87
2019-03-03T21:31:42.416Z,5.13
2019-03-03T21:34:15.191Z,3.37
2019-03-03T21:36:45.979Z,7.57
2019-03-03T21:39:16.601Z,5.87
2019-03-03T21:41:47.313Z,5.20
2019-03-03T21:44:17.732Z,3.87
2019-03-03T21:46:48.273Z,4.40
2019-03-03T21:49:20.185Z,3.10
2019-03-03T21:51:52.296Z,3.33
2019-03-03T21:54:23.615Z,4.00
2019-03-03T21:56:54.062Z,4.50
2019-03-03T21:59:25.778Z,4.00
2019-03-03T22:01:56.380Z,4.43
2019-03-03T22:04:27.318Z,3.37
2019-03-03T22:06:57.205Z,4.63
2019-03-03T22:09:27.586Z,4.90
2019-03-03T22:11:58.068Z,4.03
2019-03-03T22:14:28.571Z,3.97
2019-03-03T22:16:59.563Z,3.27
2019-03-03T22:19:30.340Z,5.97
2019-03-03T22:22:01.103Z,3.83
2019-03-03T22:24:31.640Z,3.90
2019-03-03T22:27:02.445Z,5.57
2019-03-03T22:29:33.394Z,3.43
2019-03-03T22:32:04.047Z,4.87
2019-03-03T22:34:35.437Z,4.27
2019-03-03T22:37:07.429Z,2.93
2019-03-03T22:39:40.509Z,4.50
2019-03-03T22:42:14.098Z,5.50
2019-03-03T22:44:44.892Z,4.00
2019-03-03T22:47:16.533Z,4.80
2019-03-03T22:49:47.072Z,3.43
2019-03-03T22:52:17.906Z,4.53
2019-03-03T22:54:48.180Z,4.17
2019-03-03T22:57:21.727Z,3.80
2019-03-03T22:59:52.212Z,4.03
2019-03-03T23:02:25.307Z,3.97
2019-03-03T23:05:31.123Z,4.37
2019-03-03T23:08:17.389Z,4.77
2019-03-03T23:11:26.003Z,3.30
2019-03-03T23:14:09.343Z,3.37
2019-03-03T23:17:34.615Z,3.30
2019-03-03T23:20:19.639Z,3.47
2019-03-03T23:23:46.808Z,3.97
2019-03-03T23:26:17.434Z,4.57
2019-03-03T23:28:48.371Z,4.17
2019-03-03T23:31:18.903Z,4.23
2019-03-03T23:33:50.867Z,4.20
2019-03-03T23:36:22.735Z,4.23
2019-03-03T23:38:54.169Z,3.60
2019-03-03T23:41:24.623Z,4.10
2019-03-03T23:43:55.656Z,5.10
2019-03-03T23:46:26.165Z,4.97
2019-03-03T23:48:58.621Z,3.93
2019-03-03T23:51:29.384Z,5.63
2019-03-03T23:54:00.052Z,4.70
2019-03-03T23:56:30.655Z,4.10
2019-03-03T23:59:02.160Z,4.00
